sensor_id;sensor_type;location;lat;lon;timestamp;pressure;altitude;pressure_sealevel;temperature;humidity
65897;BME280;52677;50.898;10.854;2023-04-03T00:01:28;99637.34;;;0.01;100.00
65897;BME280;52677;50.898;10.854;2023-04-03T00:03:28;99641.41;;;-0.02;100.00
65897;BME280;52677;50.898;10.854;2023-04-03T00:05:28;99641.69;;;-0.04;100.00
65897;BME280;52677;50.898;10.854;2023-04-03T00:07:29;99638.97;;;-0.09;100.00
65897;BME280;52677;50.898;10.854;2023-04-03T00:09:29;99648.00;;;-0.08;100.00
65897;BME280;52677;50.898;10.854;2023-04-03T00:11:30;99645.00;;;-0.12;100.00
65897;BME280;52677;50.898;10.854;2023-04-03T00:13:31;99643.44;;;-0.23;100.00
65897;BME280;52677;50.898;10.854;2023-04-03T00:15:31;99643.44;;;-0.28;100.00
65897;BME280;52677;50.898;10.854;2023-04-03T00:17:31;99643.44;;;-0.23;100.00
65897;BME280;52677;50.898;10.854;2023-04-03T00:19:32;99653.25;;;-0.37;100.00
65897;BME280;52677;50.898;10.854;2023-04-03T00:21:32;99652.75;;;-0.44;100.00
65897;BME280;52677;50.898;10.854;2023-04-03T00:23:33;99650.59;;;-0.47;100.00
65897;BME280;52677;50.898;10.854;2023-04-03T00:25:33;99650.59;;;-0.52;100.00
65897;BME280;52677;50.898;10.854;2023-04-03T00:27:36;99655.78;;;-0.56;100.00
65897;BME280;52677;50.898;10.854;2023-04-03T00:29:37;99660.69;;;-0.63;100.00
65897;BME280;52677;50.898;10.854;2023-04-03T00:31:37;99655.53;;;-0.65;100.00
65897;BME280;52677;50.898;10.854;2023-04-03T00:33:37;99653.09;;;-0.66;100.00
65897;BME280;52677;50.898;10.854;2023-04-03T00:35:38;99652.00;;;-0.70;100.00
65897;BME280;52677;50.898;10.854;2023-04-03T00:37:38;99657.72;;;-0.77;100.00
65897;BME280;52677;50.898;10.854;2023-04-03T00:39:39;99657.47;;;-0.80;100.00
65897;BME280;52677;50.898;10.854;2023-04-03T00:41:39;99654.22;;;-0.88;100.00
65897;BME280;52677;50.898;10.854;2023-04-03T00:43:40;99669.66;;;-0.83;100.00
65897;BME280;52677;50.898;10.854;2023-04-03T00:45:43;99666.97;;;-0.88;100.00
65897;BME280;52677;50.898;10.854;2023-04-03T00:47:44;99670.25;;;-0.96;100.00
65897;BME280;52677;50.898;10.854;2023-04-03T00:49:45;99662.34;;;-0.93;100.00
65897;BME280;52677;50.898;10.854;2023-04-03T00:51:45;99670.78;;;-0.94;100.00
65897;BME280;52677;50.898;10.854;2023-04-03T00:54:06;99661.56;;;-0.98;100.00
65897;BME280;52677;50.898;10.854;2023-04-03T00:56:10;99659.66;;;-0.98;100.00
65897;BME280;52677;50.898;10.854;2023-04-03T00:58:12;99668.09;;;-0.99;100.00
65897;BME280;52677;50.898;10.854;2023-04-03T01:00:16;99663.44;;;-1.09;100.00
65897;BME280;52677;50.898;10.854;2023-04-03T01:02:18;99668.34;;;-1.06;100.00
65897;BME280;52677;50.898;10.854;2023-04-03T01:04:45;99674.59;;;-1.10;100.00
65897;BME280;52677;50.898;10.854;2023-04-03T01:06:47;99665.38;;;-1.15;100.00
65897;BME280;52677;50.898;10.854;2023-04-03T01:08:49;99661.84;;;-1.20;100.00
65897;BME280;52677;50.898;10.854;2023-04-03T01:10:50;99658.59;;;-1.22;100.00
65897;BME280;52677;50.898;10.854;2023-04-03T01:12:51;99659.13;;;-1.20;100.00
65897;BME280;52677;50.898;10.854;2023-04-03T01:14:54;99666.47;;;-1.21;100.00
65897;BME280;52677;50.898;10.854;2023-04-03T01:16:55;99661.59;;;-1.24;100.00
65897;BME280;52677;50.898;10.854;2023-04-03T01:18:55;99662.94;;;-1.21;100.00
65897;BME280;52677;50.898;10.854;2023-04-03T01:23:52;99662.41;;;-1.23;100.00
65897;BME280;52677;50.898;10.854;2023-04-03T01:25:57;99664.56;;;-1.30;100.00
65897;BME280;52677;50.898;10.854;2023-04-03T01:27:57;99672.16;;;-1.32;100.00
65897;BME280;52677;50.898;10.854;2023-04-03T01:29:58;99671.34;;;-1.38;100.00
65897;BME280;52677;50.898;10.854;2023-04-03T01:32:00;99669.97;;;-1.35;100.00
65897;BME280;52677;50.898;10.854;2023-04-03T01:34:02;99665.34;;;-1.45;100.00
65897;BME280;52677;50.898;10.854;2023-04-03T01:36:04;99666.72;;;-1.43;100.00
65897;BME280;52677;50.898;10.854;2023-04-03T01:38:04;99672.66;;;-1.51;100.00
65897;BME280;52677;50.898;10.854;2023-04-03T01:40:05;99669.69;;;-1.54;100.00
65897;BME280;52677;50.898;10.854;2023-04-03T01:42:07;99671.31;;;-1.58;100.00
65897;BME280;52677;50.898;10.854;2023-04-03T01:44:07;99673.47;;;-1.60;100.00
65897;BME280;52677;50.898;10.854;2023-04-03T01:46:07;99679.47;;;-1.53;100.00
65897;BME280;52677;50.898;10.854;2023-04-03T01:48:08;99684.91;;;-1.53;100.00
65897;BME280;52677;50.898;10.854;2023-04-03T01:50:09;99682.97;;;-1.58;100.00
65897;BME280;52677;50.898;10.854;2023-04-03T01:52:09;99689.50;;;-1.64;100.00
65897;BME280;52677;50.898;10.854;2023-04-03T01:54:09;99692.47;;;-1.71;100.00
65897;BME280;52677;50.898;10.854;2023-04-03T01:56:10;99693.28;;;-1.70;100.00
65897;BME280;52677;50.898;10.854;2023-04-03T01:58:10;99688.13;;;-1.66;100.00
65897;BME280;52677;50.898;10.854;2023-04-03T02:00:11;99690.59;;;-1.65;100.00
65897;BME280;52677;50.898;10.854;2023-04-03T02:02:12;99688.94;;;-1.66;100.00
65897;BME280;52677;50.898;10.854;2023-04-03T02:04:14;99701.44;;;-1.60;100.00
65897;BME280;52677;50.898;10.854;2023-04-03T02:06:15;99692.47;;;-1.65;100.00
65897;BME280;52677;50.898;10.854;2023-04-03T02:08:15;99690.03;;;-1.72;100.00
65897;BME280;52677;50.898;10.854;2023-04-03T02:10:18;99698.44;;;-1.74;100.00
65897;BME280;52677;50.898;10.854;2023-04-03T02:12:18;99700.84;;;-1.77;100.00
65897;BME280;52677;50.898;10.854;2023-04-03T02:14:18;99701.13;;;-1.79;100.00
65897;BME280;52677;50.898;10.854;2023-04-03T02:16:19;99699.75;;;-1.81;100.00
65897;BME280;52677;50.898;10.854;2023-04-03T02:18:19;99706.25;;;-1.82;100.00
65897;BME280;52677;50.898;10.854;2023-04-03T02:20:20;99715.22;;;-1.82;100.00
65897;BME280;52677;50.898;10.854;2023-04-03T02:22:21;99700.81;;;-1.82;100.00
65897;BME280;52677;50.898;10.854;2023-04-03T02:24:21;99699.22;;;-1.78;100.00
65897;BME280;52677;50.898;10.854;2023-04-03T02:26:22;99695.69;;;-1.79;100.00
65897;BME280;52677;50.898;10.854;2023-04-03T02:28:22;99712.00;;;-1.74;100.00
65897;BME280;52677;50.898;10.854;2023-04-03T02:30:22;99709.56;;;-1.70;100.00
65897;BME280;52677;50.898;10.854;2023-04-03T02:32:23;99710.09;;;-1.73;100.00
65897;BME280;52677;50.898;10.854;2023-04-03T02:34:23;99704.09;;;-1.75;100.00
65897;BME280;52677;50.898;10.854;2023-04-03T02:36:23;99710.91;;;-1.73;100.00
65897;BME280;52677;50.898;10.854;2023-04-03T02:38:24;99711.19;;;-1.69;100.00
65897;BME280;52677;50.898;10.854;2023-04-03T02:40:25;99713.63;;;-1.67;100.00
65897;BME280;52677;50.898;10.854;2023-04-03T02:42:25;99710.91;;;-1.67;100.00
65897;BME280;52677;50.898;10.854;2023-04-03T02:44:26;99713.91;;;-1.69;100.00
65897;BME280;52677;50.898;10.854;2023-04-03T02:46:26;99711.22;;;-1.64;100.00
65897;BME280;52677;50.898;10.854;2023-04-03T02:48:26;99716.59;;;-1.69;100.00
65897;BME280;52677;50.898;10.854;2023-04-03T02:50:27;99715.78;;;-1.70;100.00
65897;BME280;52677;50.898;10.854;2023-04-03T02:52:27;99717.69;;;-1.70;100.00
65897;BME280;52677;50.898;10.854;2023-04-03T02:54:28;99705.47;;;-1.73;100.00
65897;BME280;52677;50.898;10.854;2023-04-03T02:56:30;99714.72;;;-1.74;100.00
65897;BME280;52677;50.898;10.854;2023-04-03T02:58:30;99711.72;;;-1.72;100.00
65897;BME280;52677;50.898;10.854;2023-04-03T03:00:31;99714.72;;;-1.74;100.00
65897;BME280;52677;50.898;10.854;2023-04-03T03:02:31;99714.41;;;-1.77;100.00
65897;BME280;52677;50.898;10.854;2023-04-03T03:04:31;99716.59;;;-1.74;100.00
65897;BME280;52677;50.898;10.854;2023-04-03T03:06:32;99722.84;;;-1.74;100.00
65897;BME280;52677;50.898;10.854;2023-04-03T03:08:33;99712.00;;;-1.74;100.00
65897;BME280;52677;50.898;10.854;2023-04-03T03:10:34;99711.72;;;-1.72;100.00
65897;BME280;52677;50.898;10.854;2023-04-03T03:12:34;99712.25;;;-1.75;100.00
65897;BME280;52677;50.898;10.854;2023-04-03T03:14:34;99703.56;;;-1.77;100.00
65897;BME280;52677;50.898;10.854;2023-04-03T03:16:35;99713.06;;;-1.75;100.00
65897;BME280;52677;50.898;10.854;2023-04-03T03:18:35;99719.28;;;-1.74;100.00
65897;BME280;52677;50.898;10.854;2023-04-03T03:20:36;99714.97;;;-1.75;100.00
65897;BME280;52677;50.898;10.854;2023-04-03T03:22:36;99713.59;;;-1.78;100.00
65897;BME280;52677;50.898;10.854;2023-04-03T03:24:36;99714.16;;;-1.81;100.00
65897;BME280;52677;50.898;10.854;2023-04-03T03:26:37;99715.22;;;-1.82;100.00
65897;BME280;52677;50.898;10.854;2023-04-03T03:28:38;99713.34;;;-1.81;100.00
65897;BME280;52677;50.898;10.854;2023-04-03T03:30:39;99714.41;;;-1.77;100.00
65897;BME280;52677;50.898;10.854;2023-04-03T03:32:39;99718.22;;;-1.78;100.00
65897;BME280;52677;50.898;10.854;2023-04-03T03:34:39;99716.59;;;-1.79;100.00
65897;BME280;52677;50.898;10.854;2023-04-03T03:36:40;99719.56;;;-1.81;100.00
65897;BME280;52677;50.898;10.854;2023-04-03T03:38:41;99718.75;;;-1.81;100.00
65897;BME280;52677;50.898;10.854;2023-04-03T03:40:41;99730.66;;;-1.82;100.00
65897;BME280;52677;50.898;10.854;2023-04-03T03:42:41;99719.81;;;-1.82;100.00
65897;BME280;52677;50.898;10.854;2023-04-03T03:44:42;99725.00;;;-1.81;100.00
65897;BME280;52677;50.898;10.854;2023-04-03T03:46:42;99730.69;;;-1.77;100.00
65897;BME280;52677;50.898;10.854;2023-04-03T03:48:42;99724.44;;;-1.78;100.00
65897;BME280;52677;50.898;10.854;2023-04-03T03:50:43;99720.38;;;-1.75;100.00
65897;BME280;52677;50.898;10.854;2023-04-03T03:52:43;99721.50;;;-1.71;100.00
65897;BME280;52677;50.898;10.854;2023-04-03T03:54:44;99718.50;;;-1.70;100.00
65897;BME280;52677;50.898;10.854;2023-04-03T03:56:45;99725.59;;;-1.63;100.00
65897;BME280;52677;50.898;10.854;2023-04-03T03:58:45;99725.31;;;-1.62;100.00
65897;BME280;52677;50.898;10.854;2023-04-03T04:00:46;99726.91;;;-1.66;100.00
65897;BME280;52677;50.898;10.854;2023-04-03T04:02:47;99738.06;;;-1.62;100.00
65897;BME280;52677;50.898;10.854;2023-04-03T04:04:48;99734.28;;;-1.61;100.00
65897;BME280;52677;50.898;10.854;2023-04-03T04:06:49;99734.53;;;-1.58;100.00
65897;BME280;52677;50.898;10.854;2023-04-03T04:08:49;99740.53;;;-1.56;100.00
65897;BME280;52677;50.898;10.854;2023-04-03T04:10:50;99740.81;;;-1.52;100.00
65897;BME280;52677;50.898;10.854;2023-04-03T04:12:50;99732.66;;;-1.62;100.00
65897;BME280;52677;50.898;10.854;2023-04-03T04:14:51;99739.44;;;-1.65;100.00
65897;BME280;52677;50.898;10.854;2023-04-03T04:16:51;99739.16;;;-1.63;100.00
65897;BME280;52677;50.898;10.854;2023-04-03T04:18:52;99744.03;;;-1.60;100.00
65897;BME280;52677;50.898;10.854;2023-04-03T04:20:52;99745.94;;;-1.61;100.00
65897;BME280;52677;50.898;10.854;2023-04-03T04:22:52;99749.47;;;-1.60;100.00
65897;BME280;52677;50.898;10.854;2023-04-03T04:24:53;99746.75;;;-1.60;100.00
65897;BME280;52677;50.898;10.854;2023-04-03T04:26:53;99749.19;;;-1.64;100.00
65897;BME280;52677;50.898;10.854;2023-04-03T04:28:53;99750.56;;;-1.61;100.00
65897;BME280;52677;50.898;10.854;2023-04-03T04:30:54;99750.28;;;-1.65;100.00
65897;BME280;52677;50.898;10.854;2023-04-03T04:32:54;99755.13;;;-1.67;100.00
65897;BME280;52677;50.898;10.854;2023-04-03T04:34:55;99754.59;;;-1.69;100.00
65897;BME280;52677;50.898;10.854;2023-04-03T04:36:55;99757.03;;;-1.67;100.00
65897;BME280;52677;50.898;10.854;2023-04-03T04:38:55;99754.06;;;-1.66;100.00
65897;BME280;52677;50.898;10.854;2023-04-03T04:40:57;99759.75;;;-1.67;100.00
65897;BME280;52677;50.898;10.854;2023-04-03T04:42:57;99766.25;;;-1.68;100.00
65897;BME280;52677;50.898;10.854;2023-04-03T04:44:57;99764.38;;;-1.68;100.00
65897;BME280;52677;50.898;10.854;2023-04-03T04:46:58;99765.44;;;-1.69;100.00
65897;BME280;52677;50.898;10.854;2023-04-03T04:48:58;99765.75;;;-1.65;100.00
65897;BME280;52677;50.898;10.854;2023-04-03T04:50:58;99768.16;;;-1.69;100.00
65897;BME280;52677;50.898;10.854;2023-04-03T04:52:58;99765.75;;;-1.65;100.00
65897;BME280;52677;50.898;10.854;2023-04-03T04:54:59;99772.25;;;-1.72;100.00
65897;BME280;52677;50.898;10.854;2023-04-03T04:56:59;99772.50;;;-1.73;100.00
65897;BME280;52677;50.898;10.854;2023-04-03T04:59:00;99777.13;;;-1.74;100.00
65897;BME280;52677;50.898;10.854;2023-04-03T05:01:05;99776.28;;;-1.74;100.00
65897;BME280;52677;50.898;10.854;2023-04-03T05:03:06;99777.94;;;-1.73;100.00
65897;BME280;52677;50.898;10.854;2023-04-03T05:05:07;99780.88;;;-1.75;100.00
65897;BME280;52677;50.898;10.854;2023-04-03T05:07:07;99780.63;;;-1.78;100.00
65897;BME280;52677;50.898;10.854;2023-04-03T05:09:08;99784.69;;;-1.76;100.00
65897;BME280;52677;50.898;10.854;2023-04-03T05:11:09;99787.13;;;-1.74;100.00
65897;BME280;52677;50.898;10.854;2023-04-03T05:13:10;99774.66;;;-1.75;100.00
65897;BME280;52677;50.898;10.854;2023-04-03T05:15:10;99780.88;;;-1.80;100.00
65897;BME280;52677;50.898;10.854;2023-04-03T05:17:10;99787.66;;;-1.77;100.00
65897;BME280;52677;50.898;10.854;2023-04-03T05:19:11;99790.66;;;-1.79;100.00
65897;BME280;52677;50.898;10.854;2023-04-03T05:21:11;99792.28;;;-1.78;100.00
65897;BME280;52677;50.898;10.854;2023-04-03T05:23:12;99790.69;;;-1.74;100.00
65897;BME280;52677;50.898;10.854;2023-04-03T05:25:12;99797.19;;;-1.70;100.00
65897;BME280;52677;50.898;10.854;2023-04-03T05:27:12;99792.31;;;-1.73;100.00
65897;BME280;52677;50.898;10.854;2023-04-03T05:29:13;99795.03;;;-1.67;100.00
65897;BME280;52677;50.898;10.854;2023-04-03T05:31:13;99793.94;;;-1.72;100.00
65897;BME280;52677;50.898;10.854;2023-04-03T05:33:13;99793.09;;;-1.77;100.00
65897;BME280;52677;50.898;10.854;2023-04-03T05:35:14;99804.50;;;-1.75;100.00
65897;BME280;52677;50.898;10.854;2023-04-03T05:37:14;99796.63;;;-1.77;100.00
65897;BME280;52677;50.898;10.854;2023-04-03T05:39:14;99789.31;;;-1.76;100.00
65897;BME280;52677;50.898;10.854;2023-04-03T05:41:15;99792.56;;;-1.79;100.00
65897;BME280;52677;50.898;10.854;2023-04-03T05:43:16;99804.75;;;-1.77;100.00
65897;BME280;52677;50.898;10.854;2023-04-03T05:45:16;99799.59;;;-1.78;100.00
65897;BME280;52677;50.898;10.854;2023-04-03T05:47:17;99808.84;;;-1.79;100.00
65897;BME280;52677;50.898;10.854;2023-04-03T05:49:18;99806.63;;;-1.82;100.00
65897;BME280;52677;50.898;10.854;2023-04-03T05:51:22;99810.19;;;-1.82;100.00
65897;BME280;52677;50.898;10.854;2023-04-03T05:53:27;99811.00;;;-1.81;100.00
65897;BME280;52677;50.898;10.854;2023-04-03T05:55:28;99809.34;;;-1.82;100.00
65897;BME280;52677;50.898;10.854;2023-04-03T05:57:28;99815.88;;;-1.78;100.00
65897;BME280;52677;50.898;10.854;2023-04-03T05:59:28;99816.69;;;-1.78;100.00
65897;BME280;52677;50.898;10.854;2023-04-03T06:01:29;99823.75;;;-1.77;100.00
65897;BME280;52677;50.898;10.854;2023-04-03T06:03:29;99823.25;;;-1.74;100.00
65897;BME280;52677;50.898;10.854;2023-04-03T06:05:30;99818.63;;;-1.73;100.00
65897;BME280;52677;50.898;10.854;2023-04-03T06:07:30;99821.91;;;-1.71;100.00
65897;BME280;52677;50.898;10.854;2023-04-03T06:09:31;99822.47;;;-1.64;100.00
65897;BME280;52677;50.898;10.854;2023-04-03T06:11:31;99825.19;;;-1.64;100.00
65897;BME280;52677;50.898;10.854;2023-04-03T06:13:31;99821.38;;;-1.58;100.00
65897;BME280;52677;50.898;10.854;2023-04-03T06:15:33;99830.38;;;-1.52;100.00
65897;BME280;52677;50.898;10.854;2023-04-03T06:17:34;99821.69;;;-1.54;100.00
65897;BME280;52677;50.898;10.854;2023-04-03T06:19:34;99839.59;;;-1.53;100.00
65897;BME280;52677;50.898;10.854;2023-04-03T06:21:35;99834.22;;;-1.48;100.00
65897;BME280;52677;50.898;10.854;2023-04-03T06:23:35;99844.22;;;-1.54;100.00
65897;BME280;52677;50.898;10.854;2023-04-03T06:25:36;99835.53;;;-1.51;100.00
65897;BME280;52677;50.898;10.854;2023-04-03T06:27:36;99835.03;;;-1.43;100.00
65897;BME280;52677;50.898;10.854;2023-04-03T06:29:37;99834.47;;;-1.45;100.00
65897;BME280;52677;50.898;10.854;2023-04-03T06:31:37;99841.78;;;-1.50;100.00
65897;BME280;52677;50.898;10.854;2023-04-03T06:33:38;99842.88;;;-1.56;100.00
65897;BME280;52677;50.898;10.854;2023-04-03T06:35:38;99839.06;;;-1.55;100.00
65897;BME280;52677;50.898;10.854;2023-04-03T06:37:38;99847.75;;;-1.53;100.00
65897;BME280;52677;50.898;10.854;2023-04-03T06:39:38;99840.69;;;-1.54;100.00
65897;BME280;52677;50.898;10.854;2023-04-03T06:41:39;99838.78;;;-1.54;100.00
65897;BME280;52677;50.898;10.854;2023-04-03T06:43:40;99842.88;;;-1.51;100.00
65897;BME280;52677;50.898;10.854;2023-04-03T06:45:40;99842.34;;;-1.48;100.00
65897;BME280;52677;50.898;10.854;2023-04-03T06:47:41;99851.59;;;-1.44;100.00
65897;BME280;52677;50.898;10.854;2023-04-03T06:49:42;99849.38;;;-1.52;100.00
65897;BME280;52677;50.898;10.854;2023-04-03T06:51:42;99862.44;;;-1.44;100.00
65897;BME280;52677;50.898;10.854;2023-04-03T06:53:43;99857.56;;;-1.42;100.00
65897;BME280;52677;50.898;10.854;2023-04-03T06:55:43;99869.22;;;-1.47;100.00
65897;BME280;52677;50.898;10.854;2023-04-03T06:57:43;99867.09;;;-1.39;100.00
65897;BME280;52677;50.898;10.854;2023-04-03T06:59:44;99858.94;;;-1.39;100.00
65897;BME280;52677;50.898;10.854;2023-04-03T07:01:44;99868.19;;;-1.40;100.00
65897;BME280;52677;50.898;10.854;2023-04-03T07:03:46;99869.53;;;-1.33;100.00
65897;BME280;52677;50.898;10.854;2023-04-03T07:05:46;99866.53;;;-1.36;100.00
65897;BME280;52677;50.898;10.854;2023-04-03T07:07:47;99877.44;;;-1.31;100.00
65897;BME280;52677;50.898;10.854;2023-04-03T07:09:47;99874.97;;;-1.33;100.00
65897;BME280;52677;50.898;10.854;2023-04-03T07:11:48;99873.63;;;-1.30;100.00
65897;BME280;52677;50.898;10.854;2023-04-03T07:13:49;99868.78;;;-1.23;100.00
65897;BME280;52677;50.898;10.854;2023-04-03T07:15:49;99876.66;;;-1.22;100.00
65897;BME280;52677;50.898;10.854;2023-04-03T07:17:50;99882.59;;;-1.25;100.00
65897;BME280;52677;50.898;10.854;2023-04-03T07:19:50;99876.63;;;-1.27;100.00
65897;BME280;52677;50.898;10.854;2023-04-03T07:21:51;99880.47;;;-1.23;100.00
65897;BME280;52677;50.898;10.854;2023-04-03T07:23:51;99886.66;;;-1.27;100.00
65897;BME280;52677;50.898;10.854;2023-04-03T07:25:52;99894.84;;;-1.22;100.00
65897;BME280;52677;50.898;10.854;2023-04-03T07:27:52;99900.81;;;-1.20;100.00
65897;BME280;52677;50.898;10.854;2023-04-03T07:29:54;99887.53;;;-1.11;100.00
65897;BME280;52677;50.898;10.854;2023-04-03T07:31:56;99896.00;;;-1.03;100.00
65897;BME280;52677;50.898;10.854;2023-04-03T07:33:56;99897.09;;;-0.99;100.00
65897;BME280;52677;50.898;10.854;2023-04-03T07:35:57;99899.03;;;-0.84;100.00
65897;BME280;52677;50.898;10.854;2023-04-03T07:37:57;99897.91;;;-0.93;100.00
65897;BME280;52677;50.898;10.854;2023-04-03T07:39:58;99914.50;;;-0.90;100.00
65897;BME280;52677;50.898;10.854;2023-04-03T07:41:59;99908.50;;;-0.92;100.00
65897;BME280;52677;50.898;10.854;2023-04-03T07:44:00;99907.19;;;-0.89;100.00
65897;BME280;52677;50.898;10.854;2023-04-03T07:46:00;99922.69;;;-0.79;100.00
65897;BME280;52677;50.898;10.854;2023-04-03T07:48:01;99917.53;;;-0.71;100.00
65897;BME280;52677;50.898;10.854;2023-04-03T07:50:02;99917.28;;;-0.64;100.00
65897;BME280;52677;50.898;10.854;2023-04-03T07:52:02;99930.88;;;-0.64;100.00
65897;BME280;52677;50.898;10.854;2023-04-03T07:54:03;99921.38;;;-0.51;100.00
65897;BME280;52677;50.898;10.854;2023-04-03T07:56:04;99927.34;;;-0.60;100.00
65897;BME280;52677;50.898;10.854;2023-04-03T07:58:04;99932.50;;;-0.73;100.00
65897;BME280;52677;50.898;10.854;2023-04-03T08:00:05;99926.78;;;-0.67;100.00
65897;BME280;52677;50.898;10.854;2023-04-03T08:02:11;99928.44;;;-0.55;100.00
65897;BME280;52677;50.898;10.854;2023-04-03T08:04:12;99913.22;;;-0.57;100.00
65897;BME280;52677;50.898;10.854;2023-04-03T08:06:12;99927.38;;;-0.44;100.00
65897;BME280;52677;50.898;10.854;2023-04-03T08:08:19;99925.47;;;-0.29;100.00
65897;BME280;52677;50.898;10.854;2023-04-03T08:10:20;99930.13;;;-0.24;100.00
65897;BME280;52677;50.898;10.854;2023-04-03T08:12:20;99932.28;;;-0.16;100.00
65897;BME280;52677;50.898;10.854;2023-04-03T08:14:21;99941.53;;;-0.12;100.00
65897;BME280;52677;50.898;10.854;2023-04-03T08:16:22;99937.44;;;-0.09;99.85
65897;BME280;52677;50.898;10.854;2023-04-03T08:18:24;99938.25;;;-0.09;99.43
65897;BME280;52677;50.898;10.854;2023-04-03T08:20:24;99939.34;;;-0.10;97.99
65897;BME280;52677;50.898;10.854;2023-04-03T08:22:26;99943.16;;;-0.06;99.58
65897;BME280;52677;50.898;10.854;2023-04-03T08:24:26;99948.06;;;-0.23;98.99
65897;BME280;52677;50.898;10.854;2023-04-03T08:26:26;99938.25;;;-0.29;98.66
65897;BME280;52677;50.898;10.854;2023-04-03T08:28:27;99936.63;;;-0.25;99.80
65897;BME280;52677;50.898;10.854;2023-04-03T08:30:27;99932.81;;;-0.29;98.64
65897;BME280;52677;50.898;10.854;2023-04-03T08:32:28;99935.28;;;-0.33;98.35
65897;BME280;52677;50.898;10.854;2023-04-03T08:34:28;99937.97;;;-0.28;98.16
65897;BME280;52677;50.898;10.854;2023-04-03T08:36:29;99939.34;;;-0.35;96.57
65897;BME280;52677;50.898;10.854;2023-04-03T08:38:29;99929.56;;;-0.21;96.65
65897;BME280;52677;50.898;10.854;2023-04-03T08:40:30;99930.66;;;-0.07;96.13
65897;BME280;52677;50.898;10.854;2023-04-03T08:42:44;99935.25;;;0.13;95.24
65897;BME280;52677;50.898;10.854;2023-04-03T08:45:08;99933.09;;;0.25;94.47
65897;BME280;52677;50.898;10.854;2023-04-03T08:49:40;99932.28;;;-0.06;92.52
65897;BME280;52677;50.898;10.854;2023-04-03T08:51:48;99940.97;;;-0.09;92.10
65897;BME280;52677;50.898;10.854;2023-04-03T08:54:14;99942.88;;;-0.09;91.50
65897;BME280;52677;50.898;10.854;2023-04-03T08:56:17;99933.91;;;-0.10;90.96
65897;BME280;52677;50.898;10.854;2023-04-03T08:58:24;99939.91;;;-0.08;90.32
65897;BME280;52677;50.898;10.854;2023-04-03T09:00:28;99932.53;;;0.08;91.94
65897;BME280;52677;50.898;10.854;2023-04-03T09:02:40;99937.13;;;0.38;93.87
65897;BME280;52677;50.898;10.854;2023-04-03T09:04:42;99939.81;;;0.48;87.58
65897;BME280;52677;50.898;10.854;2023-04-03T09:06:44;99934.66;;;0.47;88.78
65897;BME280;52677;50.898;10.854;2023-04-03T09:11:44;99927.88;;;0.39;88.57
65897;BME280;52677;50.898;10.854;2023-04-03T09:14:02;99935.19;;;0.49;89.84
65897;BME280;52677;50.898;10.854;2023-04-03T09:16:59;99926.78;;;0.45;89.58
65897;BME280;52677;50.898;10.854;2023-04-03T09:18:39;99931.31;;;0.70;88.67
65897;BME280;52677;50.898;10.854;2023-04-03T09:20:53;99940.84;;;0.83;86.52
65897;BME280;52677;50.898;10.854;2023-04-03T09:22:57;99940.28;;;0.86;85.26
65897;BME280;52677;50.898;10.854;2023-04-03T09:25:28;99933.75;;;0.77;85.86
65897;BME280;52677;50.898;10.854;2023-04-03T09:27:32;99934.28;;;0.79;86.01
65897;BME280;52677;50.898;10.854;2023-04-03T09:29:38;99944.94;;;0.75;83.34
65897;BME280;52677;50.898;10.854;2023-04-03T09:31:42;99936.25;;;0.68;84.14
65897;BME280;52677;50.898;10.854;2023-04-03T09:33:43;99931.09;;;0.62;84.74
65897;BME280;52677;50.898;10.854;2023-04-03T09:35:45;99941.72;;;0.58;82.44
65897;BME280;52677;50.898;10.854;2023-04-03T09:37:55;99927.78;;;0.65;83.64
65897;BME280;52677;50.898;10.854;2023-04-03T09:39:59;99937.63;;;0.61;83.94
65897;BME280;52677;50.898;10.854;2023-04-03T09:42:03;99954.78;;;0.56;83.22
65897;BME280;52677;50.898;10.854;2023-04-03T09:44:20;99930.56;;;0.49;85.21
65897;BME280;52677;50.898;10.854;2023-04-03T09:46:29;99940.38;;;0.45;83.94
65897;BME280;52677;50.898;10.854;2023-04-03T09:48:30;99937.09;;;0.48;84.61
65897;BME280;52677;50.898;10.854;2023-04-03T09:50:30;99939.28;;;0.51;84.22
65897;BME280;52677;50.898;10.854;2023-04-03T09:52:31;99927.56;;;0.56;84.67
65897;BME280;52677;50.898;10.854;2023-04-03T09:54:37;99933.81;;;0.62;86.42
65897;BME280;52677;50.898;10.854;2023-04-03T09:56:38;99937.06;;;0.64;85.54
65897;BME280;52677;50.898;10.854;2023-04-03T09:58:40;99931.63;;;0.69;83.86
65897;BME280;52677;50.898;10.854;2023-04-03T10:00:42;99932.97;;;0.66;84.32
65897;BME280;52677;50.898;10.854;2023-04-03T10:02:42;99937.59;;;0.76;82.67
65897;BME280;52677;50.898;10.854;2023-04-03T10:04:42;99932.38;;;0.79;81.27
65897;BME280;52677;50.898;10.854;2023-04-03T10:06:45;99930.75;;;0.78;83.62
65897;BME280;52677;50.898;10.854;2023-04-03T10:11:28;99921.31;;;1.15;81.30
65897;BME280;52677;50.898;10.854;2023-04-03T10:13:29;99919.50;;;1.00;78.74
65897;BME280;52677;50.898;10.854;2023-04-03T10:15:35;99921.91;;;1.07;80.04
65897;BME280;52677;50.898;10.854;2023-04-03T10:17:57;99919.50;;;0.95;79.75
65897;BME280;52677;50.898;10.854;2023-04-03T10:22:24;99917.41;;;1.31;80.50
65897;BME280;52677;50.898;10.854;2023-04-03T10:24:36;99914.63;;;1.42;79.76
65897;BME280;52677;50.898;10.854;2023-04-03T10:26:57;99909.78;;;1.33;79.98
65897;BME280;52677;50.898;10.854;2023-04-03T10:36:38;99899.00;;;1.52;78.95
65897;BME280;52677;50.898;10.854;2023-04-03T10:38:51;99892.22;;;1.50;78.34
65897;BME280;52677;50.898;10.854;2023-04-03T10:43:23;99891.66;;;1.82;79.10
65897;BME280;52677;50.898;10.854;2023-04-03T10:50:07;99893.28;;;2.17;75.58
65897;BME280;52677;50.898;10.854;2023-04-03T10:52:35;99891.81;;;2.01;77.13
65897;BME280;52677;50.898;10.854;2023-04-03T10:54:46;99896.81;;;2.17;78.32
65897;BME280;52677;50.898;10.854;2023-04-03T10:57:00;99893.00;;;2.18;77.48
65897;BME280;52677;50.898;10.854;2023-04-03T11:01:32;99901.03;;;1.76;76.61
65897;BME280;52677;50.898;10.854;2023-04-03T11:03:36;99896.41;;;1.71;76.73